Irondale, OH (43932)

4:49 AM EDT en Agosto 31, 2015 (GMT -0400)
Pleasent Heights | | Change Station
CLOSE
Current Station
Estación meteorológica personal
Location: East Liverpool, OH
Altura: 1165 ft
Estaciones meteorológicas cercanas

Alt 1165 ft 40.64 °N, 80.59 °W | Updated 1 minute ago

Parcialmente nublado
Parcialmente nublado
66.9 ° F
Sensación térmica 66.9 ° F
N
0.0
Viento Variable Viento desde Norte
Gusts 0.0 mph

Hoy
Alta -- | Baja -- ° F
--% Posibilidad de precipitaciones
Ayer
Alta -- | Baja -- ° F
Precip. -- pul
6:48 AM 7:56 PM
Gibosa menguante, 96% visible
Presión 30.07 pul
Visibilidad 10.0 Millas
Nubes Baja 13000 ft
Muy nublado 25000 ft
Punto de rocío 64 ° F
Humedad 93%
Precipitaciones 0.00 pul
Espesor de la nieve No disponible.
UV 0 de una escala de 12
Polen 9.70 de una escala de 12
Calidad del aire No disponible.
Flu Activity No disponible.
METAR KPIT 310751Z 18003KT 10SM FEW130 BKN250 20/18 A3008 RMK AO2 SLP183 T02000178
Presión 30.07 pul
Visibilidad 10.0 Millas
Nubes Baja 13000 ft
Muy nublado 25000 ft
Punto de rocío 64 ° F
Humedad 93%
Precipitaciones 0.00 pul
Espesor de la nieve No disponible.
UV 0 de una escala de 12
Polen 9.70 de una escala de 12
Calidad del aire No disponible.
Flu Activity No disponible.
METAR KPIT 310751Z 18003KT 10SM FEW130 BKN250 20/18 A3008 RMK AO2 SLP183 T02000178

10-Day Weather Forecast

×

Almanac

Astronomía

Aug. 31, 2015 Salida Puesta
Hora real
Crepúsculo civil
Crepúsculo náutico
Crepúsculo astronómico
Luna
Horas de luz
Horas de luz
Tomorrow will be .
, % of the Moon is Illuminated

Extremos de hoy

Máximos del estado Bajos del estado

Community

WunderPhotos

Upload Photos

1,851,220 ¡fotos cargadas!

WunderBlogs® & News

Nearby

Calidad del aire

  Calidad del aire Índice AQ Contaminante
Not available.

Grosos de nieve

Estación Profundido Altura

Actividad de terremotos

Ciudad Distance Mag. Tiempo y dato
Magnitud mínima muestra es 2,5.

Temperaturas de aguas costeras

Lugar Temperatura

Stations

Estaciones meteorológicas cercanas

Ubicación de la estación Temp. Vientos helados Punto de rocío Humedad Viento Precip. Alt Actualizado Tipo